Time;durP1;ratioP1;P1;durP2;ratioP2;P2;SDS_P1;SDS_P2;PMS_P1;PMS_P2;Temp;Humidity;BMP_temperature;BMP_pressure;BME280_temperature;BME280_humidity;BME280_pressure;Samples;Min_cycle;Max_cycle;Signal;HPM_P1;HPM_P2
2023/03/27 00:01:20;;;;;;;0.15;0.00;;;;;;;6.62;100.00;99109.69;5034257;28;20175;-74
2023/03/27 00:03:48;;;;;;;1.10;0.00;;;;;;;6.61;100.00;99103.75;5034948;28;20128;-73
2023/03/27 00:06:15;;;;;;;0.00;0.00;;;;;;;6.59;100.00;99108.25;5030123;28;20041;-73
2023/03/27 00:08:42;;;;;;;0.08;0.00;;;;;;;6.64;100.00;99123.31;5031817;28;20029;-73
2023/03/27 00:11:08;;;;;;;0.00;0.00;;;;;;;6.63;100.00;99119.09;5031709;28;20037;-73
2023/03/27 00:13:35;;;;;;;0.00;0.00;;;;;;;6.74;100.00;99120.63;5037124;28;20043;-73
2023/03/27 00:16:01;;;;;;;0.10;0.00;;;;;;;6.78;100.00;99135.69;5032452;28;20373;-73
2023/03/27 00:18:28;;;;;;;2.38;0.00;;;;;;;6.75;100.00;99143.75;5027344;28;20071;-73
2023/03/27 00:20:57;;;;;;;0.10;0.00;;;;;;;6.78;100.00;99138.28;5037274;28;20032;-73
2023/03/27 00:23:23;;;;;;;0.10;0.10;;;;;;;6.78;100.00;99134.88;5034292;28;20498;-74
2023/03/27 00:25:49;;;;;;;0.10;0.00;;;;;;;6.80;100.00;99140.72;5034334;28;20025;-73
2023/03/27 00:28:19;;;;;;;0.00;0.00;;;;;;;6.74;100.00;99152.50;5037108;28;20383;-73
2023/03/27 00:30:46;;;;;;;0.00;0.00;;;;;;;6.74;100.00;99157.69;5031718;28;20033;-73
2023/03/27 00:33:12;;;;;;;0.10;0.00;;;;;;;6.75;100.00;99166.25;5033266;28;20111;-73
2023/03/27 00:35:38;;;;;;;1.60;0.00;;;;;;;6.74;100.00;99180.97;5030931;28;20167;-73
2023/03/27 00:38:03;;;;;;;0.05;0.00;;;;;;;6.71;100.00;99185.63;5030010;28;20484;-73
2023/03/27 00:40:30;;;;;;;0.00;0.00;;;;;;;6.64;100.00;99193.19;5031049;28;20052;-73
2023/03/27 00:42:56;;;;;;;0.10;0.00;;;;;;;6.72;100.00;99192.44;5031104;28;20335;-74
2023/03/27 00:45:28;;;;;;;0.03;0.00;;;;;;;6.65;100.00;99190.44;5029551;28;20038;-74
2023/03/27 00:47:59;;;;;;;0.20;0.00;;;;;;;6.66;100.00;99193.84;5033918;28;20126;-74
2023/03/27 00:50:33;;;;;;;1.20;0.00;;;;;;;6.65;100.00;99200.81;5028657;28;20481;-74
2023/03/27 00:53:04;;;;;;;0.10;0.00;;;;;;;6.75;100.00;99203.31;5029577;28;20403;-74
2023/03/27 00:55:32;;;;;;;0.00;0.00;;;;;;;6.82;100.00;99204.34;5029793;28;20553;-74
2023/03/27 00:58:06;;;;;;;0.20;0.00;;;;;;;6.85;100.00;99219.56;5030887;28;20041;-74
2023/03/27 01:00:32;;;;;;;0.20;0.00;;;;;;;6.91;100.00;99218.16;5029646;28;20479;-74
2023/03/27 01:03:00;;;;;;;0.17;0.00;;;;;;;6.88;100.00;99224.44;5029993;28;20033;-74
2023/03/27 01:05:26;;;;;;;0.10;0.00;;;;;;;6.90;100.00;99219.94;5026559;28;20034;-74
2023/03/27 01:07:52;;;;;;;0.00;0.00;;;;;;;6.91;100.00;99221.56;5030040;28;20025;-74
2023/03/27 01:10:19;;;;;;;0.00;0.00;;;;;;;6.94;100.00;99233.38;5029507;28;20041;-74
2023/03/27 01:13:18;;;;;;;0.00;0.00;;;;;;;6.93;100.00;99230.00;5030567;28;20029;-74
2023/03/27 01:15:50;;;;;;;0.28;0.00;;;;;;;6.96;100.00;99226.28;5025122;28;20065;-74
2023/03/27 01:18:19;;;;;;;1.85;0.00;;;;;;;7.01;100.00;99228.41;5029494;28;20502;-74
2023/03/27 01:20:50;;;;;;;0.10;0.00;;;;;;;6.97;100.00;99223.53;5030188;28;20029;-74
2023/03/27 01:23:27;;;;;;;0.13;0.00;;;;;;;6.95;100.00;99222.88;5029243;28;20053;-74
2023/03/27 01:26:04;;;;;;;0.55;0.00;;;;;;;7.00;100.00;99222.44;5025587;28;20120;-74
2023/03/27 01:29:08;;;;;;;0.20;0.00;;;;;;;6.96;100.00;99213.34;5027673;28;20033;-74
2023/03/27 01:31:45;;;;;;;0.00;0.00;;;;;;;6.92;100.00;99210.22;5014854;28;20530;-74
2023/03/27 01:34:33;;;;;;;0.70;0.00;;;;;;;6.89;100.00;99199.38;5029605;28;20072;-74
2023/03/27 01:37:11;;;;;;;0.05;0.00;;;;;;;6.83;100.00;99187.84;5026260;28;20553;-74
2023/03/27 01:39:43;;;;;;;0.50;0.10;;;;;;;6.81;100.00;99194.94;5027963;28;20036;-74
2023/03/27 01:42:29;;;;;;;0.30;0.20;;;;;;;6.79;100.00;99191.69;5028447;28;20046;-74
2023/03/27 01:45:07;;;;;;;0.88;0.10;;;;;;;6.83;100.00;99192.19;5029471;28;20398;-74
2023/03/27 01:48:00;;;;;;;0.00;0.00;;;;;;;6.78;100.00;99190.06;5026982;28;20036;-74
2023/03/27 01:51:00;;;;;;;0.70;0.00;;;;;;;6.71;100.00;99178.69;5003220;28;20041;-74
2023/03/27 01:53:48;;;;;;;1.58;0.20;;;;;;;6.69;100.00;99167.66;5023557;28;20069;-74
2023/03/27 01:56:25;;;;;;;1.23;0.47;;;;;;;6.66;100.00;99161.00;5026860;28;20099;-74
2023/03/27 01:58:55;;;;;;;0.55;0.10;;;;;;;6.61;100.00;99162.47;5028508;28;20040;-73
2023/03/27 02:01:29;;;;;;;1.95;0.00;;;;;;;6.54;100.00;99156.25;5032850;28;20040;-73
2023/03/27 02:03:57;;;;;;;0.17;0.00;;;;;;;6.40;100.00;99160.19;5029965;28;20517;-74
2023/03/27 02:06:30;;;;;;;0.10;0.00;;;;;;;6.36;100.00;99158.03;5028743;28;20037;-73
2023/03/27 02:08:59;;;;;;;0.43;0.00;;;;;;;6.40;100.00;99165.34;5030239;28;20025;-73
2023/03/27 02:11:30;;;;;;;2.13;0.00;;;;;;;6.39;100.00;99149.97;5028120;28;20069;-73
2023/03/27 02:14:05;;;;;;;4.13;0.00;;;;;;;6.36;100.00;99152.88;5028952;28;20041;-73
2023/03/27 02:16:35;;;;;;;0.00;0.00;;;;;;;6.33;100.00;99143.63;5033679;28;20500;-73
2023/03/27 02:19:07;;;;;;;0.00;0.00;;;;;;;6.31;100.00;99142.97;5029527;28;20390;-73
2023/03/27 02:21:32;;;;;;;0.15;0.00;;;;;;;6.27;100.00;99145.03;5025864;28;20473;-73
2023/03/27 02:24:00;;;;;;;0.00;0.00;;;;;;;6.27;100.00;99145.03;5029748;28;20068;-73
2023/03/27 02:26:29;;;;;;;0.00;0.00;;;;;;;6.29;100.00;99143.13;5026260;28;20029;-73
2023/03/27 02:29:23;;;;;;;0.43;0.00;;;;;;;6.25;100.00;99152.13;5028162;28;20032;-73
2023/03/27 02:31:57;;;;;;;0.05;0.00;;;;;;;6.28;100.00;99161.38;5027541;28;20029;-73
2023/03/27 02:34:41;;;;;;;0.10;0.00;;;;;;;6.27;100.00;99165.72;5027582;28;20045;-73
2023/03/27 02:37:43;;;;;;;0.10;0.10;;;;;;;6.31;100.00;99161.88;5030393;28;20037;-73
2023/03/27 02:40:44;;;;;;;0.30;0.20;;;;;;;6.35;100.00;99167.56;5007278;28;20044;-73
2023/03/27 02:43:42;;;;;;;0.65;0.10;;;;;;;6.36;100.00;99165.81;5032421;28;20033;-72
2023/03/27 02:46:22;;;;;;;0.20;0.00;;;;;;;6.32;100.00;99171.28;5027293;28;20708;-72
2023/03/27 02:48:53;;;;;;;0.10;0.00;;;;;;;6.33;100.00;99164.31;5030633;28;20037;-73
2023/03/27 02:51:30;;;;;;;0.03;0.00;;;;;;;6.31;100.00;99171.41;5025741;28;20044;-72
2023/03/27 02:54:03;;;;;;;0.40;0.00;;;;;;;6.30;100.00;99187.91;5027639;28;20028;-72
2023/03/27 02:56:32;;;;;;;0.00;0.00;;;;;;;6.36;100.00;99196.84;5032880;28;20355;-73
2023/03/27 02:59:13;;;;;;;0.00;0.00;;;;;;;6.32;100.00;99199.72;5038053;28;20051;-72
2023/03/27 03:01:39;;;;;;;0.10;0.10;;;;;;;6.30;100.00;99222.34;5026969;28;20087;-73
2023/03/27 03:04:09;;;;;;;0.00;0.00;;;;;;;6.41;100.00;99243.78;5027928;28;20041;-73
2023/03/27 03:06:35;;;;;;;1.27;0.00;;;;;;;6.42;100.00;99253.19;5030417;28;20038;-73
2023/03/27 03:09:05;;;;;;;0.10;0.00;;;;;;;6.45;100.00;99265.81;5033617;28;20099;-73
2023/03/27 03:11:33;;;;;;;0.30;0.00;;;;;;;6.46;100.00;99272.63;5035502;28;20113;-72
2023/03/27 03:13:58;;;;;;;0.00;0.00;;;;;;;6.43;100.00;99273.72;5025559;28;20046;-72
2023/03/27 03:16:24;;;;;;;2.67;0.00;;;;;;;6.46;100.00;99263.09;5027251;28;20031;-72
2023/03/27 03:18:50;;;;;;;0.00;0.00;;;;;;;6.49;100.00;99259.41;5030925;28;20397;-73
2023/03/27 03:21:16;;;;;;;0.00;0.00;;;;;;;6.50;100.00;99258.44;5032070;28;20102;-72
2023/03/27 03:23:41;;;;;;;0.00;0.00;;;;;;;6.49;100.00;99254.22;5026592;28;20474;-72
2023/03/27 03:26:07;;;;;;;1.25;0.00;;;;;;;6.36;100.00;99266.69;5035010;28;20032;-73
2023/03/27 03:28:39;;;;;;;0.00;0.00;;;;;;;6.31;100.00;99261.97;5027596;28;20401;-72
2023/03/27 03:31:05;;;;;;;0.00;0.00;;;;;;;6.31;100.00;99267.13;5030667;28;20075;-72
2023/03/27 03:33:30;;;;;;;0.10;0.00;;;;;;;6.33;100.00;99266.03;5027659;28;20450;-72
2023/03/27 03:36:00;;;;;;;0.10;0.00;;;;;;;6.35;100.00;99252.13;5029410;28;20047;-72
2023/03/27 03:38:29;;;;;;;0.00;0.00;;;;;;;6.42;100.00;99243.63;5030850;28;20482;-72
2023/03/27 03:40:58;;;;;;;1.00;0.03;;;;;;;6.48;100.00;99252.59;5035477;28;20041;-72
2023/03/27 03:43:29;;;;;;;0.30;0.00;;;;;;;6.48;100.00;99239.66;5029390;28;20494;-72
2023/03/27 03:45:54;;;;;;;0.35;0.10;;;;;;;6.55;100.00;99243.28;5030772;28;20065;-72
2023/03/27 03:48:21;;;;;;;2.55;0.00;;;;;;;6.58;100.00;99240.41;5032760;28;20045;-72
2023/03/27 03:50:48;;;;;;;0.80;0.10;;;;;;;6.57;100.00;99234.41;5029697;28;20087;-72
2023/03/27 03:53:16;;;;;;;0.63;0.00;;;;;;;6.59;100.00;99242.84;5033542;28;20035;-72
2023/03/27 03:55:43;;;;;;;0.40;0.00;;;;;;;6.50;100.00;99237.72;5031004;28;20029;-72
2023/03/27 03:58:09;;;;;;;0.60;0.00;;;;;;;6.59;100.00;99236.84;5031357;28;20041;-72
2023/03/27 04:00:39;;;;;;;0.73;0.10;;;;;;;6.58;100.00;99246.38;5032398;28;20443;-72
2023/03/27 04:03:07;;;;;;;1.63;0.57;;;;;;;6.58;100.00;99243.78;5030535;28;20348;-72
2023/03/27 04:05:33;;;;;;;1.60;0.10;;;;;;;6.54;100.00;99239.88;5029760;28;20124;-73
2023/03/27 04:07:59;;;;;;;1.15;0.10;;;;;;;6.48;100.00;99242.25;5032293;28;20064;-73
2023/03/27 04:10:26;;;;;;;0.57;0.20;;;;;;;6.50;100.00;99238.53;5033479;28;20486;-73
2023/03/27 04:12:51;;;;;;;0.60;0.30;;;;;;;6.59;100.00;99242.03;5034329;28;20054;-73
2023/03/27 04:15:17;;;;;;;2.38;0.10;;;;;;;6.62;100.00;99246.88;5029431;28;20037;-72
2023/03/27 04:17:43;;;;;;;0.75;0.10;;;;;;;6.65;100.00;99255.16;5031386;28;20029;-73
2023/03/27 04:20:11;;;;;;;0.25;0.00;;;;;;;6.65;100.00;99249.97;5030821;28;20029;-73
2023/03/27 04:22:37;;;;;;;1.90;0.10;;;;;;;6.68;100.00;99251.44;5032650;28;20033;-73
2023/03/27 04:25:06;;;;;;;0.60;0.00;;;;;;;6.69;100.00;99257.44;5033481;28;20033;-73
2023/03/27 04:27:34;;;;;;;0.20;0.00;;;;;;;6.72;100.00;99257.16;5038221;28;20033;-73
2023/03/27 04:30:01;;;;;;;0.32;0.00;;;;;;;6.72;100.00;99257.97;5032249;28;20088;-72
2023/03/27 04:32:26;;;;;;;2.80;0.00;;;;;;;6.76;100.00;99269.66;5029102;28;20084;-72
2023/03/27 04:34:53;;;;;;;0.17;0.00;;;;;;;6.79;100.00;99268.53;5038206;28;20056;-72
2023/03/27 04:37:19;;;;;;;1.40;0.05;;;;;;;6.74;100.00;99263.81;5029357;28;20033;-72
2023/03/27 04:39:45;;;;;;;0.10;0.00;;;;;;;6.71;100.00;99274.44;5029673;28;20479;-72
2023/03/27 04:42:12;;;;;;;2.92;0.00;;;;;;;6.58;100.00;99274.84;5032923;28;20103;-72
2023/03/27 04:44:38;;;;;;;1.30;0.10;;;;;;;6.51;100.00;99280.75;5032741;28;20116;-72
2023/03/27 04:47:05;;;;;;;0.65;0.10;;;;;;;6.63;100.00;99275.19;5029015;28;20132;-72
2023/03/27 04:49:38;;;;;;;0.17;0.00;;;;;;;6.72;100.00;99265.72;5029861;28;20025;-72
2023/03/27 04:52:07;;;;;;;0.55;0.10;;;;;;;6.71;100.00;99271.06;5035025;28;20037;-73
2023/03/27 04:54:33;;;;;;;2.15;0.00;;;;;;;6.72;100.00;99270.09;5030812;28;20115;-73
2023/03/27 04:57:00;;;;;;;0.15;0.00;;;;;;;6.76;100.00;99269.66;5030478;28;20045;-72
2023/03/27 04:59:30;;;;;;;0.30;0.00;;;;;;;6.76;100.00;99268.84;5029917;28;20029;-73
2023/03/27 05:01:57;;;;;;;1.98;0.00;;;;;;;6.68;100.00;99277.34;5028587;28;20478;-73
2023/03/27 05:04:25;;;;;;;1.15;0.17;;;;;;;6.62;100.00;99275.34;5031877;28;20137;-73
2023/03/27 05:06:51;;;;;;;0.85;0.13;;;;;;;6.72;100.00;99283.03;5028225;28;20025;-73
2023/03/27 05:09:16;;;;;;;0.90;0.30;;;;;;;6.69;100.00;99275.56;5025141;28;20132;-73
2023/03/27 05:11:43;;;;;;;0.80;0.30;;;;;;;6.65;100.00;99277.63;5030794;28;20478;-73
2023/03/27 05:14:09;;;;;;;0.52;0.20;;;;;;;6.52;100.00;99277.22;5028197;28;20041;-73
2023/03/27 05:16:34;;;;;;;0.50;0.20;;;;;;;6.50;100.00;99276.53;5030317;28;20048;-73
2023/03/27 05:19:02;;;;;;;0.40;0.20;;;;;;;6.51;100.00;99278.16;5031229;28;20063;-73
2023/03/27 05:21:27;;;;;;;0.30;0.10;;;;;;;6.50;100.00;99279.13;5028454;28;20143;-73
2023/03/27 05:23:53;;;;;;;0.40;0.10;;;;;;;6.43;100.00;99285.84;5032084;28;20040;-73
2023/03/27 05:26:18;;;;;;;0.20;0.10;;;;;;;6.46;100.00;99283.78;5032558;28;20040;-73
2023/03/27 05:28:44;;;;;;;0.25;0.10;;;;;;;6.52;100.00;99284.97;5028108;28;20113;-73
2023/03/27 05:31:09;;;;;;;0.30;0.10;;;;;;;6.61;100.00;99297.84;5027600;28;20474;-73
2023/03/27 05:33:35;;;;;;;0.75;0.10;;;;;;;6.60;100.00;99296.22;5032187;28;20084;-73
2023/03/27 05:36:01;;;;;;;0.57;0.17;;;;;;;6.63;100.00;99295.91;5034305;28;20048;-73
2023/03/27 05:38:27;;;;;;;0.30;0.10;;;;;;;6.55;100.00;99300.22;5031776;28;20037;-73
2023/03/27 05:40:52;;;;;;;0.63;0.20;;;;;;;6.54;100.00;99304.56;5035628;28;20505;-73
2023/03/27 05:43:18;;;;;;;0.30;0.10;;;;;;;6.50;100.00;99311.00;5026754;28;20041;-74
2023/03/27 05:45:43;;;;;;;0.30;0.10;;;;;;;6.53;100.00;99307.31;5030851;28;20478;-74
2023/03/27 05:48:09;;;;;;;0.38;0.10;;;;;;;6.52;100.00;99314.25;5026806;28;20036;-73
2023/03/27 05:50:35;;;;;;;0.30;0.10;;;;;;;6.66;100.00;99316.31;5030134;28;20045;-73
2023/03/27 05:53:03;;;;;;;0.38;0.10;;;;;;;6.71;100.00;99313.28;5026392;28;20034;-73
2023/03/27 05:55:30;;;;;;;0.40;0.10;;;;;;;6.77;100.00;99323.06;5029742;28;20025;-73
2023/03/27 05:57:55;;;;;;;0.70;0.20;;;;;;;6.84;100.00;99326.69;5027695;28;20407;-73
2023/03/27 06:00:25;;;;;;;1.88;0.22;;;;;;;6.90;100.00;99326.09;5026822;28;20063;-73
2023/03/27 06:02:58;;;;;;;0.52;0.20;;;;;;;7.02;100.00;99336.22;5028788;28;20152;-73
2023/03/27 06:05:28;;;;;;;0.90;0.28;;;;;;;7.07;100.00;99341.78;5027955;28;20490;-73
2023/03/27 06:07:54;;;;;;;1.20;0.35;;;;;;;7.07;100.00;99340.00;5028380;28;20375;-73
2023/03/27 06:10:20;;;;;;;1.63;0.20;;;;;;;7.10;100.00;99346.63;5029963;28;20084;-73
2023/03/27 06:12:47;;;;;;;0.90;0.40;;;;;;;7.17;100.00;99342.47;5029245;28;20494;-73
2023/03/27 06:15:14;;;;;;;0.77;0.40;;;;;;;7.15;100.00;99345.22;5028927;28;20069;-73
2023/03/27 06:17:41;;;;;;;0.63;0.35;;;;;;;7.17;100.00;99360.63;5028892;28;20028;-73
2023/03/27 06:20:11;;;;;;;0.80;0.40;;;;;;;7.06;100.00;99366.03;5028442;28;20033;-73
2023/03/27 06:22:40;;;;;;;0.93;0.50;;;;;;;7.01;100.00;99365.69;5033141;28;20102;-73
2023/03/27 06:25:06;;;;;;;1.67;0.75;;;;;;;7.05;100.00;99367.00;5028559;28;20112;-73
2023/03/27 06:27:31;;;;;;;1.20;0.30;;;;;;;6.95;100.00;99367.91;5029151;28;20116;-73
2023/03/27 06:29:57;;;;;;;0.25;0.10;;;;;;;6.85;100.00;99368.91;5033613;28;20032;-74
2023/03/27 06:32:22;;;;;;;0.30;0.10;;;;;;;6.72;100.00;99366.69;5027094;28;20033;-73
2023/03/27 06:34:49;;;;;;;0.68;0.03;;;;;;;6.68;100.00;99380.06;5029506;28;20042;-73
2023/03/27 06:37:14;;;;;;;0.20;0.10;;;;;;;6.76;100.00;99378.38;5028516;28;20390;-73
2023/03/27 06:39:39;;;;;;;0.77;0.10;;;;;;;6.85;100.00;99387.84;5029285;28;20037;-73
2023/03/27 06:42:05;;;;;;;0.47;0.10;;;;;;;6.88;100.00;99387.56;5030721;28;20030;-73
2023/03/27 06:44:31;;;;;;;0.68;0.20;;;;;;;7.02;100.00;99391.44;5028774;28;20037;-73
2023/03/27 06:46:56;;;;;;;0.80;0.20;;;;;;;7.19;100.00;99395.78;5033101;28;20032;-71
2023/03/27 06:49:22;;;;;;;1.67;0.20;;;;;;;7.22;100.00;99389.47;5028400;28;20034;-73
2023/03/27 06:51:47;;;;;;;0.63;0.20;;;;;;;7.23;100.00;99388.50;5023885;28;20025;-73
2023/03/27 06:54:13;;;;;;;0.90;0.22;;;;;;;7.19;100.00;99389.78;5028213;28;20124;-73
2023/03/27 06:56:39;;;;;;;0.82;0.28;;;;;;;7.32;100.00;99391.03;5028811;28;20038;-72
2023/03/27 06:59:04;;;;;;;1.20;0.30;;;;;;;7.50;100.00;99396.19;5027275;28;20030;-73
2023/03/27 07:01:29;;;;;;;1.15;0.65;;;;;;;7.64;100.00;99408.59;5033858;28;20021;-73
2023/03/27 07:03:55;;;;;;;1.92;0.60;;;;;;;7.73;100.00;99411.25;5028868;28;20110;-73
2023/03/27 07:06:21;;;;;;;1.45;0.40;;;;;;;7.81;100.00;99421.69;5028499;28;20513;-73
2023/03/27 07:08:46;;;;;;;0.80;0.40;;;;;;;7.86;100.00;99422.03;5030869;28;20044;-73
2023/03/27 07:11:12;;;;;;;0.85;0.40;;;;;;;7.88;100.00;99430.47;5029915;28;20025;-73
2023/03/27 07:13:39;;;;;;;2.78;0.35;;;;;;;7.76;100.00;99421.31;5030540;28;20112;-73
2023/03/27 07:16:06;;;;;;;0.85;0.40;;;;;;;7.64;100.00;99431.09;5029428;28;20026;-72
2023/03/27 07:18:31;;;;;;;0.80;0.40;;;;;;;7.78;100.00;99429.75;5033982;28;20061;-73
2023/03/27 07:20:57;;;;;;;2.13;0.73;;;;;;;7.75;100.00;99427.47;5031902;28;20121;-71
2023/03/27 07:23:22;;;;;;;3.67;0.75;;;;;;;7.76;100.00;99429.09;5030520;28;20037;-72
2023/03/27 07:25:48;;;;;;;2.30;1.02;;;;;;;7.81;100.00;99426.88;5037572;28;20028;-70
2023/03/27 07:28:17;;;;;;;1.85;1.10;;;;;;;7.89;100.00;99429.50;5032071;28;20060;-77
2023/03/27 07:30:42;;;;;;;5.57;1.00;;;;;;;8.08;100.00;99429.28;5032897;28;20041;-76
2023/03/27 07:33:09;;;;;;;2.85;1.35;;;;;;;8.36;100.00;99434.34;5034795;28;20044;-77
2023/03/27 07:35:44;;;;;;;3.75;1.50;;;;;;;8.37;100.00;99441.97;5031925;28;20033;-75
2023/03/27 07:38:09;;;;;;;6.00;1.35;;;;;;;8.39;100.00;99444.41;5030923;28;20045;-76
2023/03/27 07:40:35;;;;;;;4.10;1.55;;;;;;;8.30;100.00;99449.53;5035418;28;20113;-75
2023/03/27 07:43:00;;;;;;;3.33;1.05;;;;;;;8.26;100.00;99445.63;5036340;28;20033;-75
2023/03/27 07:45:26;;;;;;;2.28;0.50;;;;;;;8.17;100.00;99456.91;5043598;28;20029;-75
2023/03/27 07:47:51;;;;;;;3.13;0.63;;;;;;;8.20;100.00;99454.00;5035785;28;20068;-74
2023/03/27 07:50:20;;;;;;;2.85;0.60;;;;;;;8.33;100.00;99451.03;5031693;28;20037;-74
2023/03/27 07:52:46;;;;;;;1.85;0.60;;;;;;;8.38;100.00;99461.78;5032402;28;20087;-74
2023/03/27 07:55:14;;;;;;;4.32;0.40;;;;;;;8.52;100.00;99468.13;5026501;28;20033;-73
2023/03/27 07:57:46;;;;;;;2.78;0.90;;;;;;;8.60;100.00;99470.78;5039334;28;20033;-73
2023/03/27 08:00:13;;;;;;;2.35;0.50;;;;;;;8.48;100.00;99472.84;5031710;28;20635;-73
2023/03/27 08:02:40;;;;;;;0.80;0.30;;;;;;;8.55;100.00;99479.03;5029170;28;20450;-72
2023/03/27 08:05:07;;;;;;;4.25;0.55;;;;;;;8.56;100.00;99485.03;5031170;28;20080;-73
2023/03/27 08:07:38;;;;;;;2.58;0.57;;;;;;;8.54;100.00;99486.97;5031438;28;20025;-72
2023/03/27 08:10:05;;;;;;;3.20;0.20;;;;;;;8.47;100.00;99483.41;5035436;28;20035;-73
2023/03/27 08:12:32;;;;;;;3.28;0.50;;;;;;;8.58;100.00;99488.28;5031652;28;20146;-73
2023/03/27 08:14:58;;;;;;;0.85;0.25;;;;;;;8.59;100.00;99497.72;5031914;28;20495;-73
2023/03/27 08:17:27;;;;;;;0.65;0.30;;;;;;;8.54;100.00;99497.34;5031044;28;20037;-73
2023/03/27 08:19:53;;;;;;;4.65;0.38;;;;;;;8.60;100.00;99499.34;5027281;28;20038;-74
2023/03/27 08:22:20;;;;;;;1.25;0.30;;;;;;;8.70;100.00;99497.44;5031064;28;20037;-74
2023/03/27 08:24:46;;;;;;;0.95;0.20;;;;;;;8.69;100.00;99501.00;5031124;28;20569;-74
2023/03/27 08:27:12;;;;;;;2.33;0.20;;;;;;;8.82;100.00;99497.97;5030913;28;20106;-73
2023/03/27 08:29:37;;;;;;;1.00;0.15;;;;;;;8.76;100.00;99502.00;5030888;28;20487;-71
2023/03/27 08:32:04;;;;;;;0.80;0.25;;;;;;;9.00;100.00;99506.47;5030422;28;20037;-71
2023/03/27 08:34:29;;;;;;;2.65;0.30;;;;;;;9.22;100.00;99505.91;5030118;28;20026;-71
2023/03/27 08:36:55;;;;;;;1.48;0.30;;;;;;;9.26;100.00;99514.19;5028286;28;20388;-71
2023/03/27 08:39:23;;;;;;;0.57;0.10;;;;;;;9.17;100.00;99509.94;5030458;28;20081;-70
2023/03/27 08:41:53;;;;;;;1.40;0.20;;;;;;;9.33;100.00;99512.59;5030579;28;20032;-71
2023/03/27 08:44:22;;;;;;;1.55;0.20;;;;;;;9.30;100.00;99512.91;5030618;28;20071;-71
2023/03/27 08:47:03;;;;;;;1.52;0.22;;;;;;;9.33;100.00;99520.38;5029845;28;20072;-71
2023/03/27 08:49:37;;;;;;;0.57;0.20;;;;;;;9.15;100.00;99515.28;5028605;28;20483;-71
2023/03/27 08:52:14;;;;;;;0.50;0.20;;;;;;;9.06;100.00;99513.63;5029801;28;20061;-71
2023/03/27 08:54:43;;;;;;;0.40;0.20;;;;;;;9.16;100.00;99518.72;5032808;28;20040;-71
2023/03/27 08:57:20;;;;;;;0.52;0.20;;;;;;;9.16;100.00;99510.91;5031685;28;20571;-71
2023/03/27 08:59:46;;;;;;;0.57;0.15;;;;;;;9.23;100.00;99515.31;5030889;28;20038;-71
2023/03/27 09:02:39;;;;;;;2.58;0.10;;;;;;;9.25;100.00;99512.56;5032240;28;20054;-72
2023/03/27 09:05:12;;;;;;;1.58;0.30;;;;;;;9.24;100.00;99516.94;5027338;28;20132;-72
2023/03/27 09:07:56;;;;;;;0.88;0.20;;;;;;;9.34;100.00;99518.59;5030821;28;20032;-71
2023/03/27 09:10:48;;;;;;;3.03;0.20;;;;;;;9.28;100.00;99520.84;5028815;28;20044;-71
2023/03/27 09:13:17;;;;;;;2.33;0.30;;;;;;;9.51;100.00;99521.03;5030729;28;20029;-71
2023/03/27 09:16:01;;;;;;;1.58;0.20;;;;;;;9.56;100.00;99526.59;5028878;28;20022;-71
2023/03/27 09:18:39;;;;;;;2.47;0.20;;;;;;;9.52;100.00;99530.47;5028212;28;20905;-72
2023/03/27 09:21:16;;;;;;;2.00;0.17;;;;;;;9.60;100.00;99533.09;5027282;28;20375;-72
2023/03/27 09:23:45;;;;;;;2.25;0.20;;;;;;;9.69;100.00;99535.69;5030401;28;20033;-72
2023/03/27 09:26:21;;;;;;;1.65;0.30;;;;;;;9.84;100.00;99537.50;5032217;28;20112;-72
2023/03/27 09:28:50;;;;;;;0.88;0.20;;;;;;;10.01;100.00;99535.69;5030116;28;20121;-71
2023/03/27 09:31:27;;;;;;;0.57;0.17;;;;;;;10.03;100.00;99541.56;5026466;28;20033;-71
2023/03/27 09:33:54;;;;;;;0.80;0.20;;;;;;;10.09;100.00;99550.50;5029857;28;20033;-71
2023/03/27 09:36:21;;;;;;;1.13;0.20;;;;;;;10.10;100.00;99550.34;5029881;28;20032;-72
2023/03/27 09:38:51;;;;;;;1.42;0.20;;;;;;;10.30;100.00;99556.06;5014735;28;20157;-72
2023/03/27 09:41:22;;;;;;;1.77;0.25;;;;;;;10.18;100.00;99557.34;5013897;28;20084;-72
2023/03/27 09:43:53;;;;;;;1.17;0.20;;;;;;;10.40;100.00;99554.06;5022128;28;20450;-72
2023/03/27 09:46:21;;;;;;;1.02;0.20;;;;;;;10.29;100.00;99554.44;5024881;28;20044;-72
2023/03/27 09:49:05;;;;;;;3.50;0.20;;;;;;;10.58;100.00;99567.72;5021835;28;20026;-71
2023/03/27 09:51:34;;;;;;;3.67;0.30;;;;;;;10.87;100.00;99558.53;5030492;28;20044;-75
2023/03/27 09:53:59;;;;;;;0.50;0.20;;;;;;;10.92;100.00;99561.41;5033412;28;20171;-74
2023/03/27 09:56:26;;;;;;;1.52;0.30;;;;;;;10.92;100.00;99556.22;5034921;28;20120;-74
2023/03/27 09:58:52;;;;;;;2.42;0.30;;;;;;;11.09;100.00;99570.81;5029039;28;20080;-74
2023/03/27 10:01:29;;;;;;;2.30;0.30;;;;;;;11.04;100.00;99574.91;5028802;28;20521;-74
2023/03/27 10:03:58;;;;;;;2.05;0.32;;;;;;;11.10;100.00;99569.03;5029480;28;20060;-74
2023/03/27 10:06:30;;;;;;;2.60;0.40;;;;;;;11.24;100.00;99576.13;5028691;28;20075;-75
2023/03/27 10:09:00;;;;;;;3.22;0.60;;;;;;;11.37;100.00;99578.16;5032002;28;20771;-74
2023/03/27 10:11:30;;;;;;;1.20;0.32;;;;;;;11.51;100.00;99575.66;5027257;28;20037;-74
2023/03/27 10:13:58;;;;;;;1.38;0.40;;;;;;;11.54;100.00;99577.09;5031258;28;20037;-74
2023/03/27 10:16:26;;;;;;;1.27;0.32;;;;;;;11.78;100.00;99579.59;5028543;28;20090;-74
2023/03/27 10:18:56;;;;;;;3.10;0.60;;;;;;;11.86;100.00;99581.31;5029533;28;20034;-74
2023/03/27 10:21:30;;;;;;;0.98;0.40;;;;;;;11.94;100.00;99579.47;5030167;28;25082;-74
2023/03/27 10:24:05;;;;;;;1.60;0.40;;;;;;;11.91;100.00;99571.97;5029822;28;20124;-74
2023/03/27 10:26:35;;;;;;;2.80;0.80;;;;;;;12.24;100.00;99566.50;5029085;28;20120;-74
2023/03/27 10:29:19;;;;;;;1.08;0.40;;;;;;;12.32;100.00;99568.22;5023654;28;20041;-74
2023/03/27 10:31:50;;;;;;;1.27;0.50;;;;;;;12.40;100.00;99581.19;5027238;28;20068;-73
2023/03/27 10:34:53;;;;;;;1.60;0.60;;;;;;;12.38;99.51;99575.34;5028522;28;20030;-74
2023/03/27 10:37:27;;;;;;;1.38;0.50;;;;;;;12.58;100.00;99582.50;4985421;28;20492;-71
2023/03/27 10:39:59;;;;;;;1.33;0.40;;;;;;;12.69;100.00;99573.41;4985372;28;20129;-71
2023/03/27 10:42:27;;;;;;;2.42;0.47;;;;;;;12.69;100.00;99575.22;4982607;28;20034;-75
2023/03/27 10:44:55;;;;;;;5.00;0.70;;;;;;;12.70;100.00;99574.22;4984243;28;20039;-74
2023/03/27 10:47:27;;;;;;;2.55;0.52;;;;;;;12.53;100.00;99568.34;4986017;28;20419;-75
2023/03/27 10:50:02;;;;;;;1.25;0.55;;;;;;;12.63;100.00;99569.72;4990171;28;20042;-72
2023/03/27 10:52:39;;;;;;;3.20;0.50;;;;;;;12.73;100.00;99566.84;4984820;28;20400;-74
2023/03/27 10:55:23;;;;;;;3.97;0.75;;;;;;;12.76;99.01;99568.28;4988466;28;20037;-73
2023/03/27 10:57:54;;;;;;;4.00;0.70;;;;;;;12.80;100.00;99574.75;4984430;28;20130;-73
2023/03/27 11:00:31;;;;;;;7.25;1.05;;;;;;;12.85;100.00;99575.00;4990133;28;20038;-73
2023/03/27 11:03:08;;;;;;;1.48;0.50;;;;;;;12.77;100.00;99575.09;4980741;28;20046;-73
2023/03/27 11:05:41;;;;;;;1.85;0.40;;;;;;;12.75;100.00;99572.69;4986216;28;20042;-73
2023/03/27 11:08:14;;;;;;;2.00;0.63;;;;;;;12.78;100.00;99569.69;4988945;28;20045;-73
2023/03/27 11:10:43;;;;;;;0.70;0.50;;;;;;;12.86;100.00;99569.59;5003547;28;20053;-73
2023/03/27 11:13:32;;;;;;;1.42;0.68;;;;;;;12.86;96.69;99574.84;5032615;28;20069;-73
2023/03/27 11:16:10;;;;;;;2.17;0.57;;;;;;;12.81;98.34;99576.38;5029820;28;20041;-73
2023/03/27 11:18:40;;;;;;;2.63;0.80;;;;;;;12.62;96.14;99578.53;5034108;28;20029;-73
2023/03/27 11:21:12;;;;;;;4.57;1.13;;;;;;;12.50;95.78;99579.16;5032171;28;20144;-74
2023/03/27 11:23:58;;;;;;;2.80;0.93;;;;;;;12.34;91.51;99585.34;5033193;28;20138;-73
2023/03/27 11:26:31;;;;;;;;;;;;;;;12.41;90.67;99588.06;5032226;28;20026;-73
2023/03/27 11:29:20;;;;;;;4.25;0.70;;;;;;;12.56;96.69;99581.06;5031941;28;20011;-73
2023/03/27 11:31:50;;;;;;;1.65;0.73;;;;;;;12.50;94.73;99584.38;5029329;28;20469;-72
2023/03/27 11:34:15;;;;;;;2.90;1.38;;;;;;;12.39;96.63;99580.38;5032339;28;20171;-73
2023/03/27 11:36:59;;;;;;;2.60;0.80;;;;;;;12.35;95.19;99586.16;5031021;28;20025;-73
2023/03/27 11:39:37;;;;;;;1.92;0.60;;;;;;;12.35;96.25;99593.97;5031685;28;20067;-74
2023/03/27 11:42:27;;;;;;;2.20;0.73;;;;;;;12.37;91.44;99599.84;5031476;28;20052;-72
2023/03/27 11:44:54;;;;;;;2.17;0.70;;;;;;;12.34;94.47;99593.16;5022411;28;20038;-74
2023/03/27 11:47:19;;;;;;;3.50;1.05;;;;;;;12.29;92.74;99598.91;5031976;28;20030;-74